createdAt,value
2022-10-06T00:00:54.602Z,12.05
2022-10-06T00:02:56.714Z,12.02
2022-10-06T00:04:58.501Z,12.04
2022-10-06T00:07:00.571Z,12.05
2022-10-06T00:09:02.580Z,11.99
2022-10-06T00:11:05.077Z,12.05
2022-10-06T00:13:07.235Z,12.04
2022-10-06T00:15:10.589Z,12.01
2022-10-06T00:17:12.275Z,11.90
2022-10-06T00:19:14.642Z,11.93
2022-10-06T00:21:16.885Z,11.90
2022-10-06T00:23:18.568Z,11.91
2022-10-06T00:25:23.233Z,12.06
2022-10-06T00:27:25.146Z,12.08
2022-10-06T00:29:26.851Z,12.07
2022-10-06T00:31:28.868Z,12.03
2022-10-06T00:33:30.717Z,11.90
2022-10-06T00:35:34.292Z,12.07
2022-10-06T00:37:37.689Z,12.06
2022-10-06T00:39:39.623Z,11.90
2022-10-06T00:41:41.363Z,12.03
2022-10-06T00:43:54.950Z,11.89
2022-10-06T00:45:56.977Z,12.02
2022-10-06T00:48:02.744Z,12.11
2022-10-06T00:50:04.988Z,12.08
2022-10-06T00:52:10.029Z,12.08
2022-10-06T00:54:13.085Z,11.96
2022-10-06T00:56:15.123Z,11.99
2022-10-06T00:58:17.176Z,11.97
2022-10-06T01:00:19.711Z,11.99
2022-10-06T01:02:33.731Z,11.82
2022-10-06T01:04:37.203Z,11.91
2022-10-06T01:06:48.497Z,11.98
2022-10-06T01:08:50.522Z,11.99
2022-10-06T01:10:52.405Z,11.98
2022-10-06T01:12:54.640Z,11.99
2022-10-06T01:14:56.783Z,12.10
2022-10-06T01:17:07.679Z,12.14
2022-10-06T01:19:32.394Z,12.06
2022-10-06T01:21:44.248Z,11.96
2022-10-06T01:23:46.516Z,12.06
2022-10-06T01:25:48.480Z,12.02
2022-10-06T01:27:53.963Z,12.11
2022-10-06T01:29:57.327Z,12.15
2022-10-06T01:31:59.737Z,12.13
2022-10-06T01:34:01.669Z,12.10
2022-10-06T01:36:03.776Z,11.99
2022-10-06T01:38:05.476Z,12.08
2022-10-06T01:40:07.703Z,12.12
2022-10-06T01:42:10.431Z,12.21
2022-10-06T01:44:12.105Z,12.23
2022-10-06T01:46:14.065Z,12.17
2022-10-06T01:48:15.913Z,12.11
2022-10-06T01:50:17.687Z,12.02
2022-10-06T01:52:19.817Z,11.93
2022-10-06T01:54:21.609Z,11.85
2022-10-06T01:56:23.376Z,11.78
2022-10-06T01:58:25.430Z,11.81
2022-10-06T02:00:27.423Z,11.69
2022-10-06T02:02:31.090Z,11.70
2022-10-06T02:04:32.833Z,11.66
2022-10-06T02:06:34.857Z,11.66
2022-10-06T02:08:36.602Z,11.64
2022-10-06T02:10:38.363Z,11.66
2022-10-06T02:12:40.419Z,11.64
2022-10-06T02:14:42.564Z,11.71
2022-10-06T02:16:45.185Z,11.56
2022-10-06T02:18:47.546Z,11.69
2022-10-06T02:20:49.297Z,11.73
2022-10-06T02:22:51.043Z,11.80
2022-10-06T02:24:52.834Z,11.78
2022-10-06T02:26:54.668Z,11.82
2022-10-06T02:28:56.479Z,11.79
2022-10-06T02:31:03.142Z,11.74
2022-10-06T02:33:05.185Z,11.74
2022-10-06T02:35:07.282Z,11.80
2022-10-06T02:37:09.070Z,11.85
2022-10-06T02:39:10.749Z,11.87
2022-10-06T02:41:12.522Z,11.77
2022-10-06T02:43:14.494Z,11.77
2022-10-06T02:45:16.199Z,11.82
2022-10-06T02:47:19.094Z,11.82
2022-10-06T02:49:20.933Z,11.72
2022-10-06T02:51:23.025Z,11.88
2022-10-06T02:53:25.592Z,11.89
2022-10-06T02:55:27.350Z,11.85
2022-10-06T02:57:29.129Z,11.94
2022-10-06T02:59:30.976Z,11.90
2022-10-06T03:01:33.252Z,11.82
2022-10-06T03:03:36.408Z,11.68
2022-10-06T03:05:38.177Z,11.72
2022-10-06T03:07:40.081Z,11.70
2022-10-06T03:09:42.512Z,11.76
2022-10-06T03:11:44.820Z,11.77
2022-10-06T03:13:47.483Z,11.62
2022-10-06T03:15:49.186Z,11.63
2022-10-06T03:17:51.126Z,11.66
2022-10-06T03:19:53.080Z,11.69
2022-10-06T03:21:54.793Z,11.70
2022-10-06T03:23:57.492Z,11.68
2022-10-06T03:25:59.351Z,11.67
2022-10-06T03:28:01.066Z,11.69
2022-10-06T03:30:03.229Z,11.69
2022-10-06T03:32:05.285Z,11.62
2022-10-06T03:34:07.068Z,11.53
2022-10-06T03:36:13.313Z,11.53
2022-10-06T03:38:15.148Z,11.63
2022-10-06T03:40:20.543Z,11.67
2022-10-06T03:42:22.436Z,11.53
2022-10-06T03:44:24.511Z,11.62
2022-10-06T03:46:28.614Z,11.64
2022-10-06T03:48:32.966Z,11.67
2022-10-06T03:50:35.028Z,11.61
2022-10-06T03:52:36.698Z,11.56
2022-10-06T03:54:38.445Z,11.53
2022-10-06T03:56:41.922Z,11.52
2022-10-06T03:58:46.192Z,11.40
2022-10-06T04:00:47.938Z,11.36
2022-10-06T04:02:50.594Z,11.46
2022-10-06T04:04:52.315Z,11.40
2022-10-06T04:06:54.060Z,11.26
2022-10-06T04:08:56.789Z,11.23
2022-10-06T04:11:09.957Z,11.43
2022-10-06T04:13:11.794Z,11.41
2022-10-06T04:15:13.656Z,11.38
2022-10-06T04:17:15.373Z,11.39
2022-10-06T04:19:18.080Z,11.46
2022-10-06T04:21:20.306Z,11.39
2022-10-06T04:23:21.995Z,11.41
2022-10-06T04:25:24.278Z,11.35
2022-10-06T04:27:26.162Z,11.37
2022-10-06T04:29:27.871Z,11.21
2022-10-06T04:31:33.100Z,11.04
2022-10-06T04:33:34.976Z,11.27
2022-10-06T04:35:36.669Z,11.26
2022-10-06T04:37:38.846Z,11.31
2022-10-06T04:39:40.671Z,11.30
2022-10-06T04:41:42.782Z,11.35
2022-10-06T04:43:48.791Z,11.27
2022-10-06T04:46:06.359Z,11.36
2022-10-06T04:48:14.803Z,11.43
2022-10-06T04:50:16.627Z,11.31
2022-10-06T04:52:18.609Z,11.27
2022-10-06T04:54:20.313Z,11.27
2022-10-06T04:56:31.245Z,11.30
2022-10-06T04:58:44.745Z,11.44
2022-10-06T05:00:48.917Z,11.35
2022-10-06T05:02:53.250Z,11.44
2022-10-06T05:04:55.154Z,11.40
2022-10-06T05:06:56.862Z,11.44
2022-10-06T05:09:10.419Z,11.52
2022-10-06T05:11:15.116Z,11.60
2022-10-06T05:13:19.424Z,11.62
2022-10-06T05:15:21.195Z,11.69
2022-10-06T05:17:23.006Z,12.03
2022-10-06T05:19:24.800Z,12.16
2022-10-06T05:21:29.487Z,12.47
2022-10-06T05:23:34.572Z,12.79
2022-10-06T05:25:36.292Z,12.92
2022-10-06T05:27:38.041Z,12.87
2022-10-06T05:29:39.962Z,12.71
2022-10-06T05:31:41.729Z,12.52
2022-10-06T05:33:43.490Z,12.47
2022-10-06T05:36:02.325Z,12.49
2022-10-06T05:38:04.012Z,12.53
2022-10-06T05:40:06.146Z,12.46
2022-10-06T05:42:08.099Z,12.56
2022-10-06T05:44:09.805Z,12.56
2022-10-06T05:46:17.939Z,12.77
2022-10-06T05:48:19.963Z,12.82
2022-10-06T05:50:21.639Z,12.89
2022-10-06T05:52:23.448Z,12.91
2022-10-06T05:54:25.370Z,12.85
2022-10-06T05:56:32.097Z,12.88
2022-10-06T05:58:35.862Z,13.04
2022-10-06T06:00:37.927Z,13.04
2022-10-06T06:02:39.698Z,13.25
2022-10-06T06:04:41.642Z,13.82
2022-10-06T06:06:45.501Z,13.80
2022-10-06T06:08:48.774Z,13.74
2022-10-06T06:10:50.519Z,13.79
2022-10-06T06:12:52.299Z,13.71
2022-10-06T06:14:53.985Z,13.69
2022-10-06T06:16:55.761Z,13.73
2022-10-06T06:18:58.116Z,13.73
2022-10-06T06:21:01.968Z,13.64
2022-10-06T06:23:03.763Z,13.74
2022-10-06T06:25:06.052Z,13.70
2022-10-06T06:27:07.740Z,13.86
2022-10-06T06:29:09.650Z,13.79
2022-10-06T06:31:19.717Z,13.91
2022-10-06T06:33:21.887Z,13.93
2022-10-06T06:35:23.702Z,13.95
2022-10-06T06:37:25.461Z,14.03
2022-10-06T06:39:27.134Z,14.02
2022-10-06T06:41:35.380Z,14.01
2022-10-06T06:43:37.435Z,14.06
2022-10-06T06:45:39.176Z,14.09
2022-10-06T06:47:41.118Z,14.05
2022-10-06T06:49:42.853Z,14.15
2022-10-06T06:51:45.632Z,14.28
2022-10-06T06:53:47.423Z,14.28
2022-10-06T06:55:50.370Z,14.48
2022-10-06T06:57:52.429Z,14.59
2022-10-06T06:59:54.266Z,14.50
2022-10-06T07:01:56.114Z,14.80
2022-10-06T07:03:59.067Z,15.12
2022-10-06T07:06:09.490Z,15.34
2022-10-06T07:08:11.676Z,15.81
2022-10-06T07:10:13.585Z,16.31
2022-10-06T07:12:15.491Z,16.46
2022-10-06T07:14:17.842Z,16.71
2022-10-06T07:16:20.787Z,16.76
2022-10-06T07:18:22.512Z,16.66
2022-10-06T07:20:24.546Z,16.92
2022-10-06T07:22:28.476Z,17.19
2022-10-06T07:24:30.338Z,17.38
2022-10-06T07:26:32.722Z,17.34
2022-10-06T07:28:34.485Z,17.54
2022-10-06T07:30:40.831Z,17.39
2022-10-06T07:32:43.107Z,17.40
2022-10-06T07:34:44.847Z,17.13
2022-10-06T07:36:46.580Z,16.96
2022-10-06T07:38:48.973Z,17.23
2022-10-06T07:43:20.682Z,17.25
2022-10-06T07:45:28.341Z,17.10
2022-10-06T07:47:30.047Z,17.09
2022-10-06T07:49:31.729Z,17.16
2022-10-06T07:51:33.727Z,17.16
2022-10-06T07:53:35.418Z,17.38
2022-10-06T07:55:38.330Z,17.53
2022-10-06T07:57:40.315Z,17.26
2022-10-06T07:59:42.089Z,17.56
2022-10-06T08:01:43.882Z,17.52
2022-10-06T08:03:47.539Z,17.52
2022-10-06T08:05:50.298Z,17.49
2022-10-06T08:07:52.481Z,17.57
2022-10-06T08:09:54.429Z,17.58
2022-10-06T08:11:56.417Z,17.82
2022-10-06T08:13:58.401Z,17.86
2022-10-06T08:16:07.378Z,17.99
2022-10-06T08:18:33.665Z,17.98
2022-10-06T08:20:30.882Z,17.56
2022-10-06T08:22:33.191Z,17.79
2022-10-06T08:25:01.126Z,17.65
2022-10-06T08:26:56.574Z,17.70
2022-10-06T08:28:58.687Z,17.74
2022-10-06T08:31:07.574Z,18.00
2022-10-06T08:33:09.369Z,17.97
2022-10-06T08:35:11.464Z,17.88
2022-10-06T08:37:20.120Z,17.70
2022-10-06T08:39:22.263Z,17.85
2022-10-06T08:41:28.362Z,17.95
2022-10-06T08:43:32.367Z,18.12
2022-10-06T08:45:40.313Z,18.22
2022-10-06T08:47:53.741Z,18.31
2022-10-06T08:49:56.142Z,18.25
2022-10-06T08:52:01.127Z,18.11
2022-10-06T08:54:10.518Z,18.08
2022-10-06T08:56:19.416Z,17.90
2022-10-06T08:58:34.721Z,18.01
2022-10-06T09:00:38.013Z,18.16
2022-10-06T09:02:46.030Z,17.97
2022-10-06T09:04:47.836Z,17.81
2022-10-06T09:07:13.416Z,17.92
2022-10-06T09:09:21.201Z,17.85
2022-10-06T09:11:59.776Z,17.92
2022-10-06T09:14:04.038Z,17.91
2022-10-06T09:16:13.158Z,17.95
2022-10-06T09:18:29.158Z,17.93
2022-10-06T09:20:44.025Z,18.12
2022-10-06T09:22:49.033Z,17.96
2022-10-06T09:24:56.925Z,18.02
2022-10-06T09:26:58.900Z,17.90
2022-10-06T09:29:00.649Z,18.07
2022-10-06T09:31:02.556Z,18.15
2022-10-06T09:33:06.727Z,18.09
2022-10-06T09:35:20.659Z,17.92
2022-10-06T09:37:22.770Z,17.73
2022-10-06T09:39:24.627Z,17.75
2022-10-06T09:41:40.374Z,17.78
2022-10-06T09:43:52.609Z,17.76
2022-10-06T09:45:56.192Z,18.00
2022-10-06T09:48:20.952Z,17.88
2022-10-06T09:50:28.162Z,17.80
2022-10-06T09:52:30.084Z,17.84
2022-10-06T09:54:32.467Z,17.76
2022-10-06T09:56:34.224Z,18.08
2022-10-06T09:58:36.326Z,18.06
2022-10-06T10:00:46.120Z,18.37
2022-10-06T10:02:47.999Z,18.40
2022-10-06T10:04:55.603Z,18.18
2022-10-06T10:07:16.486Z,18.37
2022-10-06T10:09:20.695Z,18.61
2022-10-06T10:11:24.064Z,18.38
2022-10-06T10:13:26.966Z,18.27
2022-10-06T10:15:48.998Z,18.40
2022-10-06T10:18:11.970Z,18.29
2022-10-06T10:20:26.711Z,18.27
2022-10-06T10:22:38.716Z,18.08
2022-10-06T10:25:14.198Z,18.27
2022-10-06T10:27:26.256Z,18.63
2022-10-06T10:30:00.086Z,18.97
2022-10-06T10:32:10.121Z,19.02
2022-10-06T10:34:36.762Z,19.13
2022-10-06T10:36:44.844Z,19.32
2022-10-06T10:38:48.525Z,19.26
2022-10-06T10:41:02.174Z,19.27
2022-10-06T10:43:22.558Z,18.99
2022-10-06T10:45:35.554Z,18.79
2022-10-06T10:47:41.628Z,18.51
2022-10-06T10:49:51.101Z,18.18
2022-10-06T10:51:58.819Z,18.14
2022-10-06T10:54:16.732Z,18.02
2022-10-06T10:56:21.925Z,18.00
2022-10-06T10:58:36.934Z,18.23
2022-10-06T11:00:43.064Z,18.37
2022-10-06T11:02:44.871Z,18.65
2022-10-06T11:04:56.882Z,18.63
2022-10-06T11:07:20.080Z,18.90
2022-10-06T11:09:46.098Z,18.89
2022-10-06T11:11:57.138Z,18.90
2022-10-06T11:14:01.565Z,18.95
2022-10-06T11:16:18.721Z,18.99
2022-10-06T11:18:43.992Z,18.25
2022-10-06T11:20:53.333Z,18.59
2022-10-06T11:23:20.992Z,18.75
2022-10-06T11:25:37.519Z,18.70
2022-10-06T11:27:57.826Z,18.93
2022-10-06T11:30:06.879Z,19.00
2022-10-06T11:32:14.563Z,19.13
2022-10-06T11:34:16.278Z,19.02
2022-10-06T11:36:44.083Z,18.99
2022-10-06T11:38:54.994Z,18.68
2022-10-06T11:41:03.365Z,18.48
2022-10-06T11:43:12.966Z,18.40
2022-10-06T11:45:25.377Z,18.17
2022-10-06T11:47:37.716Z,18.19
2022-10-06T11:49:53.710Z,18.62
2022-10-06T11:52:15.363Z,18.67
2022-10-06T11:54:40.348Z,18.51
2022-10-06T11:56:42.054Z,18.48
2022-10-06T11:58:56.416Z,18.45
2022-10-06T12:00:58.159Z,18.63
2022-10-06T12:03:30.669Z,18.57
2022-10-06T12:10:27.925Z,18.48
2022-10-06T12:12:29.784Z,18.35
2022-10-06T12:16:32.301Z,18.23
2022-10-06T12:17:23.169Z,18.21
2022-10-06T12:19:33.710Z,18.52
2022-10-06T12:21:41.447Z,18.63
2022-10-06T12:23:55.673Z,18.78
2022-10-06T12:26:12.699Z,18.83
2022-10-06T12:28:28.116Z,18.79
2022-10-06T12:30:57.946Z,18.88
2022-10-06T12:33:00.949Z,18.67
2022-10-06T12:35:08.335Z,18.53
2022-10-06T12:37:31.662Z,18.21
2022-10-06T12:39:33.522Z,18.07
2022-10-06T12:41:54.300Z,18.03
2022-10-06T12:44:03.630Z,17.90
2022-10-06T12:46:18.777Z,18.04
2022-10-06T12:48:23.149Z,18.00
2022-10-06T12:50:27.164Z,18.02
2022-10-06T12:52:46.880Z,18.31
2022-10-06T12:55:11.596Z,18.57
2022-10-06T12:57:20.539Z,18.57
2022-10-06T12:59:33.793Z,18.36
2022-10-06T13:01:35.583Z,18.16
2022-10-06T13:03:38.636Z,17.90
2022-10-06T13:05:40.503Z,17.85
2022-10-06T13:08:01.872Z,17.92
2022-10-06T13:10:16.291Z,17.97
2022-10-06T13:12:20.721Z,17.97
2022-10-06T13:14:22.406Z,17.91
2022-10-06T13:16:36.893Z,18.01
2022-10-06T13:18:38.665Z,18.00
2022-10-06T13:20:53.630Z,18.06
2022-10-06T13:23:14.711Z,17.90
2022-10-06T13:25:16.570Z,18.09
2022-10-06T13:27:18.349Z,18.04
2022-10-06T13:29:25.286Z,18.07
2022-10-06T13:31:32.806Z,18.01
2022-10-06T13:33:41.383Z,18.09
2022-10-06T13:35:43.419Z,18.11
2022-10-06T13:37:45.370Z,18.05
2022-10-06T13:39:47.074Z,18.10
2022-10-06T13:42:05.279Z,18.06
2022-10-06T13:44:12.814Z,17.88
2022-10-06T13:46:18.673Z,17.97
2022-10-06T13:48:21.858Z,17.95
2022-10-06T13:50:23.837Z,17.90
2022-10-06T13:52:28.837Z,17.95
2022-10-06T13:54:53.752Z,17.79
2022-10-06T13:56:56.089Z,17.92
2022-10-06T13:58:57.802Z,18.09
2022-10-06T14:01:01.612Z,18.04
2022-10-06T14:03:06.595Z,17.83
2022-10-06T14:05:25.201Z,17.73
2022-10-06T14:07:26.959Z,17.78
2022-10-06T14:09:33.991Z,17.84
2022-10-06T14:11:35.780Z,17.82
2022-10-06T14:14:02.244Z,17.69
2022-10-06T14:16:07.492Z,17.67
2022-10-06T14:18:19.394Z,17.58
2022-10-06T14:20:44.524Z,17.80
2022-10-06T14:22:46.683Z,17.81
2022-10-06T14:24:51.748Z,17.67
2022-10-06T14:26:53.459Z,17.69
2022-10-06T14:28:56.235Z,17.50
2022-10-06T14:30:58.989Z,17.47
2022-10-06T14:33:00.724Z,17.64
2022-10-06T14:35:02.783Z,17.70
2022-10-06T14:37:04.496Z,17.60
2022-10-06T14:39:07.604Z,17.59
2022-10-06T14:41:09.812Z,17.57
2022-10-06T14:43:12.022Z,17.42
2022-10-06T14:45:13.803Z,17.42
2022-10-06T14:47:15.766Z,17.49
2022-10-06T14:49:17.495Z,17.54
2022-10-06T14:51:19.885Z,17.37
2022-10-06T14:53:21.782Z,17.31
2022-10-06T14:55:23.475Z,17.31
2022-10-06T14:57:25.256Z,17.39
2022-10-06T14:59:27.077Z,17.39
2022-10-06T15:01:28.777Z,17.46
2022-10-06T15:03:30.644Z,17.47
2022-10-06T15:05:32.683Z,17.36
2022-10-06T15:07:34.422Z,17.24
2022-10-06T15:09:36.225Z,17.11
2022-10-06T15:11:38.748Z,16.96
2022-10-06T15:13:40.627Z,16.92
2022-10-06T15:15:42.389Z,16.91
2022-10-06T15:17:44.317Z,16.89
2022-10-06T15:19:46.056Z,16.98
2022-10-06T15:21:47.926Z,16.94
2022-10-06T15:23:56.404Z,16.78
2022-10-06T15:25:58.392Z,16.31
2022-10-06T15:28:00.286Z,16.44
2022-10-06T15:30:02.125Z,16.40
2022-10-06T15:32:05.173Z,16.44
2022-10-06T15:34:09.085Z,16.24
2022-10-06T15:36:22.436Z,16.29
2022-10-06T15:38:24.138Z,16.29
2022-10-06T15:40:25.929Z,16.27
2022-10-06T15:42:27.847Z,16.21
2022-10-06T15:44:32.065Z,16.04
2022-10-06T15:46:38.926Z,16.04
2022-10-06T15:48:41.812Z,15.87
2022-10-06T15:50:43.531Z,16.00
2022-10-06T15:52:45.307Z,15.81
2022-10-06T15:54:46.992Z,15.85
2022-10-06T15:56:50.584Z,15.79
2022-10-06T15:58:52.151Z,15.69
2022-10-06T16:00:54.031Z,15.67
2022-10-06T16:02:55.830Z,15.70
2022-10-06T16:04:57.561Z,15.60
2022-10-06T16:06:59.516Z,15.51
2022-10-06T16:09:01.234Z,15.47
2022-10-06T16:11:03.375Z,15.37
2022-10-06T16:13:05.092Z,15.27
2022-10-06T16:15:07.365Z,15.16
2022-10-06T16:17:09.982Z,15.14
2022-10-06T16:19:11.912Z,15.10
2022-10-06T16:21:13.581Z,15.01
2022-10-06T16:23:15.328Z,14.98
2022-10-06T16:25:17.198Z,14.87
2022-10-06T16:27:18.923Z,14.75
2022-10-06T16:29:21.956Z,14.66
2022-10-06T16:31:24.113Z,14.58
2022-10-06T16:33:25.902Z,14.50
2022-10-06T16:35:27.642Z,14.51
2022-10-06T16:37:29.337Z,14.50
2022-10-06T16:39:31.134Z,14.44
2022-10-06T16:41:33.511Z,14.32
2022-10-06T16:43:40.007Z,14.03
2022-10-06T16:45:43.094Z,13.94
2022-10-06T16:47:44.765Z,13.76
2022-10-06T16:49:46.608Z,13.66
2022-10-06T16:51:48.384Z,13.62
2022-10-06T16:53:52.503Z,13.55
2022-10-06T16:55:54.499Z,13.33
2022-10-06T16:57:56.214Z,13.25
2022-10-06T16:59:57.929Z,13.17
2022-10-06T17:01:59.675Z,12.98
2022-10-06T17:04:07.874Z,12.81
2022-10-06T17:06:12.442Z,12.70
2022-10-06T17:08:14.285Z,12.66
2022-10-06T17:10:20.688Z,12.49
2022-10-06T17:12:23.009Z,12.36
2022-10-06T17:14:25.562Z,12.32
2022-10-06T17:16:30.259Z,12.12
2022-10-06T17:18:32.604Z,12.07
2022-10-06T17:20:34.374Z,12.04
2022-10-06T17:22:36.205Z,12.01
2022-10-06T17:24:37.994Z,11.97
2022-10-06T17:26:41.799Z,11.94
2022-10-06T17:28:53.515Z,11.88
2022-10-06T17:30:55.393Z,11.73
2022-10-06T17:32:57.140Z,11.61
2022-10-06T17:34:58.887Z,11.52
2022-10-06T17:37:01.836Z,11.44
2022-10-06T17:39:05.574Z,11.44
2022-10-06T17:41:27.379Z,11.30
2022-10-06T17:43:29.091Z,11.18
2022-10-06T17:45:30.901Z,11.14
2022-10-06T17:47:32.621Z,11.11
2022-10-06T17:49:35.864Z,11.03
2022-10-06T17:51:40.172Z,10.95
2022-10-06T17:53:52.971Z,10.81
2022-10-06T17:55:54.733Z,10.84
2022-10-06T17:57:56.565Z,10.81
2022-10-06T17:59:58.297Z,10.77
2022-10-06T18:02:02.246Z,10.73
2022-10-06T18:04:06.055Z,10.68
2022-10-06T18:06:10.234Z,10.62
2022-10-06T18:08:12.489Z,10.57
2022-10-06T18:10:14.416Z,10.53
2022-10-06T18:12:16.114Z,10.48
2022-10-06T18:14:19.971Z,10.49
2022-10-06T18:16:23.757Z,10.46
2022-10-06T18:18:25.490Z,10.38
2022-10-06T18:20:27.242Z,10.36
2022-10-06T18:22:29.016Z,10.33
2022-10-06T18:24:31.758Z,10.23
2022-10-06T18:26:33.478Z,10.17
2022-10-06T18:28:35.718Z,10.16
2022-10-06T18:30:37.541Z,10.11
2022-10-06T18:36:10.080Z,9.75
2022-10-06T18:37:22.921Z,9.87
2022-10-06T18:39:24.695Z,9.73
2022-10-06T18:41:27.883Z,9.65
2022-10-06T18:43:30.501Z,9.66
2022-10-06T18:45:36.791Z,9.61
2022-10-06T18:47:41.155Z,9.67
2022-10-06T18:49:42.973Z,9.64
2022-10-06T18:51:52.642Z,9.65
2022-10-06T18:53:59.745Z,9.58
2022-10-06T18:56:01.444Z,9.55
2022-10-06T18:58:03.647Z,9.57
2022-10-06T19:00:05.941Z,9.54
2022-10-06T19:02:07.794Z,9.53
2022-10-06T19:04:11.124Z,9.39
2022-10-06T19:06:12.961Z,9.29
2022-10-06T19:08:14.664Z,9.27
2022-10-06T19:10:16.446Z,9.24
2022-10-06T19:12:18.314Z,9.30
2022-10-06T19:14:24.330Z,9.28
2022-10-06T19:16:26.056Z,9.21
2022-10-06T19:18:35.513Z,9.21
2022-10-06T19:20:37.284Z,9.09
2022-10-06T19:22:39.073Z,9.09
2022-10-06T19:24:43.811Z,9.07
2022-10-06T19:26:47.367Z,8.93
2022-10-06T19:28:49.097Z,8.95
2022-10-06T19:30:57.964Z,8.97
2022-10-06T19:32:59.774Z,8.89
2022-10-06T19:35:04.232Z,8.83
2022-10-06T19:37:09.643Z,8.90
2022-10-06T19:39:12.469Z,8.86
2022-10-06T19:41:14.272Z,8.83
2022-10-06T19:43:16.752Z,8.85
2022-10-06T19:45:18.579Z,8.82
2022-10-06T19:47:20.315Z,8.81
2022-10-06T19:49:22.953Z,8.74
2022-10-06T19:51:25.237Z,8.64
2022-10-06T19:53:26.971Z,8.61
2022-10-06T19:55:28.985Z,8.55
2022-10-06T19:57:31.751Z,8.48
2022-10-06T19:59:33.562Z,8.53
2022-10-06T20:01:35.397Z,8.56
2022-10-06T20:03:40.844Z,8.49
2022-10-06T20:05:42.823Z,8.55
2022-10-06T20:07:47.213Z,8.55
2022-10-06T20:09:49.193Z,8.48
2022-10-06T20:11:51.695Z,8.44
2022-10-06T20:13:53.562Z,8.35
2022-10-06T20:15:55.381Z,8.36
2022-10-06T20:17:57.082Z,8.19
2022-10-06T20:20:03.087Z,8.16
2022-10-06T20:22:04.811Z,8.08
2022-10-06T20:24:11.005Z,8.16
2022-10-06T20:26:14.819Z,8.10
2022-10-06T20:28:16.576Z,7.98
2022-10-06T20:30:18.425Z,7.95
2022-10-06T20:32:20.286Z,7.96
2022-10-06T20:34:24.825Z,7.96
2022-10-06T20:36:28.252Z,7.90
2022-10-06T20:38:30.286Z,7.88
2022-10-06T20:40:32.111Z,7.86
2022-10-06T20:42:33.885Z,7.84
2022-10-06T20:44:35.741Z,7.73
2022-10-06T20:46:39.099Z,7.72
2022-10-06T20:48:40.869Z,7.80
2022-10-06T20:50:42.713Z,7.75
2022-10-06T20:52:44.492Z,7.71
2022-10-06T20:54:46.174Z,7.70
2022-10-06T20:56:53.325Z,7.69
2022-10-06T20:58:55.200Z,7.71
2022-10-06T21:01:06.309Z,7.66
2022-10-06T21:03:08.256Z,7.64
2022-10-06T21:05:10.062Z,7.60
2022-10-06T21:07:11.887Z,7.52
2022-10-06T21:09:16.549Z,7.53
2022-10-06T21:11:20.698Z,7.48
2022-10-06T21:13:22.647Z,7.43
2022-10-06T21:15:24.476Z,7.44
2022-10-06T21:17:26.270Z,7.44
2022-10-06T21:19:28.018Z,7.47
2022-10-06T21:21:30.292Z,7.42
2022-10-06T21:23:41.082Z,7.35
2022-10-06T21:25:42.845Z,7.28
2022-10-06T21:27:44.896Z,7.23
2022-10-06T21:29:47.010Z,7.25
2022-10-06T21:31:48.767Z,7.20
2022-10-06T21:33:51.991Z,7.21
2022-10-06T21:36:04.832Z,7.15
2022-10-06T21:38:06.652Z,7.05
2022-10-06T21:40:08.916Z,7.10
2022-10-06T21:42:10.755Z,7.11
2022-10-06T21:44:15.049Z,7.07
2022-10-06T21:46:27.963Z,7.00
2022-10-06T21:48:31.033Z,7.01
2022-10-06T21:50:32.844Z,6.98
2022-10-06T21:52:34.597Z,7.00
2022-10-06T21:54:36.459Z,6.99
2022-10-06T21:56:38.580Z,6.80
2022-10-06T21:58:40.500Z,6.70
2022-10-06T22:00:42.308Z,6.74
2022-10-06T22:02:44.225Z,6.79
2022-10-06T22:04:46.122Z,6.82
2022-10-06T22:06:48.113Z,6.75
2022-10-06T22:08:50.909Z,6.72
2022-10-06T22:10:52.806Z,6.81
2022-10-06T22:12:54.705Z,6.72
2022-10-06T22:14:56.516Z,6.77
2022-10-06T22:16:58.378Z,6.73
2022-10-06T22:19:02.397Z,6.67
2022-10-06T22:21:22.097Z,6.55
2022-10-06T22:23:24.084Z,6.54
2022-10-06T22:25:25.859Z,6.49
2022-10-06T22:27:27.617Z,6.51
2022-10-06T22:29:29.485Z,6.51
2022-10-06T22:31:31.295Z,6.45
2022-10-06T22:35:52.147Z,6.34
2022-10-06T22:37:53.902Z,6.27
2022-10-06T22:39:55.669Z,6.25
2022-10-06T22:41:57.583Z,6.26
2022-10-06T22:43:59.634Z,6.30
2022-10-06T22:46:02.171Z,6.33
2022-10-06T22:48:07.744Z,6.24
2022-10-06T22:50:09.718Z,6.24
2022-10-06T22:52:11.458Z,6.20
2022-10-06T22:54:17.596Z,6.17
2022-10-06T22:56:19.817Z,6.13
2022-10-06T22:58:22.168Z,6.02
2022-10-06T23:00:24.325Z,6.01
2022-10-06T23:02:26.163Z,6.02
2022-10-06T23:04:28.034Z,6.02
2022-10-06T23:06:29.918Z,6.09
2022-10-06T23:08:35.243Z,6.00
2022-10-06T23:10:37.318Z,5.95
2022-10-06T23:12:39.241Z,5.99
2022-10-06T23:14:41.030Z,5.98
2022-10-06T23:16:42.840Z,5.91
2022-10-06T23:18:45.390Z,5.87
2022-10-06T23:20:47.163Z,5.79
2022-10-06T23:22:48.954Z,5.80
2022-10-06T23:24:51.125Z,5.81
2022-10-06T23:26:52.889Z,5.83
2022-10-06T23:28:56.758Z,5.84
2022-10-06T23:30:58.972Z,5.84
2022-10-06T23:33:00.759Z,5.73
2022-10-06T23:35:02.705Z,5.78
2022-10-06T23:37:04.673Z,5.72
2022-10-06T23:39:06.452Z,5.69
2022-10-06T23:41:08.527Z,5.61
2022-10-06T23:43:10.514Z,5.68
2022-10-06T23:45:12.269Z,5.75
2022-10-06T23:47:14.104Z,5.67
2022-10-06T23:49:15.966Z,5.77
2022-10-06T23:51:18.096Z,5.68
2022-10-06T23:53:19.917Z,5.60
2022-10-06T23:55:21.762Z,5.60
2022-10-06T23:57:23.526Z,5.63
2022-10-06T23:59:25.562Z,5.61
